Hudson — CGDG — position and weather

sailwx.info

Track history (hours):
 
Tides and Currents Weather Stations Pressure Air Temp Water Temp Dewpoint Dewpoint Depression Visibility Wind Speed Wind Dir Waves Ship Positions

Oceanographic research ship Hudson (Canada)

Detailed information on ship capabilities available from University of Delaware's Ocean Information Center.

Last reported at 2017-Nov-21 11:00 UTC. Time now 2017-Nov-21 15:31 UTC.
Position N 44°42' W 063°36'.

Length 85.03 m; beam 15.2 m; draft 6.28 m.

Type: Ship. MMSI: 316024000.

Wind from 280 at 11 knots

Barometer 1017.9 mb
Air temperature -4.0 ° C
Dewpoint -5.8 ° C

Date/timePositionNaut miles runAvg speedWind from/ knotsBaromVisibWave heightAir tempDewpointWater temp
2017-Nov-21 11:00N 44°42' W 063°36'0 0.0 280 / 111017.9 -4.0-5.8
2017-Nov-21 10:00N 44°42' W 063°36'0 0.0 260 / 131016.7 -4.1-5.5
2017-Nov-21 08:00N 44°42' W 063°36'0 0.0 250 / 151014.6 -3.9-4.5
2017-Nov-21 06:00N 44°42' W 063°36'0 0.0 260 / 131011.8 -3.0-5.5
2017-Nov-21 04:00N 44°42' W 063°36'0 0.0 280 / 151009.8 -1.8-2.6
2017-Nov-21 02:00N 44°42' W 063°36'0 0.0 290 / 141007.9 -0.8-0.8
2017-Nov-21 00:00N 44°42' W 063°36'0 0.0 250 / 111005.8 0.5-4.1
2017-Nov-20 22:00N 44°42' W 063°36'0 0.0 250 / 101005.0 1.0-4.4
2017-Nov-20 21:00N 44°42' W 063°36'0 0.0 260 / 111004.1 1.4-4.1
2017-Nov-20 19:00N 44°42' W 063°36'0 0.0 290 / 201002.2 2.5-2.3
2017-Nov-20 18:00N 44°42' W 063°36'0 0.0 260 / 141001.5 2.8-3.6
2017-Nov-20 17:00N 44°42' W 063°36'0 0.0 260 / 141001.0 2.7-2.9
2017-Nov-20 16:00N 44°42' W 063°36'0 0.0 260 / 151001.0 2.9-2.2
2017-Nov-20 15:00N 44°42' W 063°36'0 0.0 270 / 131001.2 3.1-1.9
2017-Nov-20 14:00N 44°42' W 063°36'0 0.0 270 / 131001.4 2.7 0.5
2017-Nov-20 13:00N 44°42' W 063°36'0 0.0 250 / 121001.7 2.1 0.3
2017-Nov-20 12:00N 44°42' W 063°36'0 0.0 240 / 181000.8 2.1 1.2
2017-Nov-20 09:00N 44°42' W 063°36'0 0.0 250 / 11998.0 3.5 3.3
2017-Nov-20 08:00N 44°42' W 063°36'0 0.0 250 / 14997.3 3.5 3.5
2017-Nov-20 05:00N 44°42' W 063°36'0 0.0 250 / 20992.5 8.2 8.1
2017-Nov-20 04:00N 44°42' W 063°36'0 0.0 220 / 15991.1 9.6 9.8
2017-Nov-20 02:00N 44°42' W 063°36'0 0.0 200 / 16989.2 11.812.1
2017-Nov-19 22:00N 44°42' W 063°36'0 0.0 150 / 15989.9 15.215.7
2017-Nov-19 21:00N 44°42' W 063°36'0 0.0 160 / 18991.8 15.315.8
2017-Nov-19 19:00N 44°42' W 063°36'0 0.0 150 / 14993.6 15.215.6
2017-Nov-19 17:00N 44°42' W 063°36'0 0.0 150 / 13996.7 14.414.8
2017-Nov-19 15:00N 44°42' W 063°36'0 0.0 140 / 12999.5 12.112.5
2017-Nov-19 14:00N 44°42' W 063°36'0 0.0 130 / 131000.8 11.311.7
2017-Nov-19 13:00N 44°42' W 063°36'0 0.0 130 / 101002.3 10.210.6
2017-Nov-19 12:00N 44°42' W 063°36'0 0.0 130 / 151003.3 9.7 9.9
2017-Nov-19 10:00N 44°42' W 063°36'0 0.0 130 / 111004.8 8.6 8.7
2017-Nov-19 09:00N 44°42' W 063°36'0 0.0 120 / 31006.5 6.3 6.4
2017-Nov-19 08:00N 44°42' W 063°36'0 0.0 110 / 11007.5 5.2 5.2
2017-Nov-19 05:00N 44°42' W 063°36'0 0.0 150 / 11009.4 2.9 2.8
2017-Nov-19 04:00N 44°42' W 063°36'0 0.0 180 / 41009.6 2.4 2.3
2017-Nov-19 03:00N 44°42' W 063°36'0 0.0 190 / 41009.2 1.9 1.7
2017-Nov-19 02:00N 44°42' W 063°36'0 0.0 200 / 21009.9 1.6 1.4
2017-Nov-19 00:00N 44°42' W 063°36'0 0.0 270 / 41010.1 1.6 1.4
2017-Nov-18 22:00N 44°42' W 063°36'0 0.0 310 / 91009.5 2.0 1.7
2017-Nov-18 21:00N 44°42' W 063°36'0 0.0 310 / 131009.2 2.3 2.0
2017-Nov-18 19:00N 44°42' W 063°36'0 0.0 290 / 111007.9 3.4 1.5
2017-Nov-18 17:00N 44°42' W 063°36'0 0.0 310 / 141007.6 2.2 2.0
2017-Nov-18 16:00N 44°42' W 063°36'0 0.0 310 / 141007.4 1.3 1.2
2017-Nov-18 13:00N 44°42' W 063°36'0 0.0 290 / 161007.0 0.4 0.3
2017-Nov-18 11:00N 44°42' W 063°36'0 0.0 290 / 171005.3 1.1 1.0
2017-Nov-18 10:00N 44°42' W 063°36'0 0.0 300 / 201004.2 1.1 1.0
2017-Nov-18 08:00N 44°42' W 063°36'0 0.0 290 / 161002.8 1.4 1.3
2017-Nov-18 06:00N 44°42' W 063°36'0 0.0 290 / 161002.0 1.7 1.6
2017-Nov-18 04:00N 44°42' W 063°36'0 0.0 290 / 171001.0 2.4 2.3
2017-Nov-18 02:00N 44°42' W 063°36'0 0.0 290 / 171000.1 3.3 3.2
2017-Nov-17 22:00N 44°42' W 063°36'0 0.0 250 / 16997.0 4.3 4.4
2017-Nov-17 21:00N 44°42' W 063°36'0 0.0 260 / 13995.9 5.3 5.4
2017-Nov-17 20:00N 44°42' W 063°36'0 0.0 260 / 13994.8 5.8 5.8
2017-Nov-17 18:00N 44°42' W 063°36'0 0.0 250 / 16993.2 6.5 6.4
2017-Nov-17 17:00N 44°42' W 063°36'0 0.0 240 / 24993.0 6.1 6.2
2017-Nov-17 16:00N 44°42' W 063°36'0 0.0 240 / 23993.4 6.9 6.9
2017-Nov-17 12:00N 44°42' W 063°36'0 0.0 220 / 15995.2 6.9 7.0
2017-Nov-17 10:00N 44°42' W 063°36'0 0.0 190 / 6994.1 9.5 9.7
2017-Nov-17 09:00N 44°42' W 063°36'0 0.0 190 / 10995.1 10.110.3
2017-Nov-17 08:00N 44°42' W 063°36'0 0.0 110 / 6995.9 11.612.1
2017-Nov-17 07:00N 44°42' W 063°36'0 0.0 210 / 6998.3 10.611.1
2017-Nov-17 06:00N 44°42' W 063°36'0 0.0 260 / 51000.5 9.610.0
2017-Nov-17 05:00N 44°42' W 063°36'0 0.0 100 / 111002.5 10.110.5
2017-Nov-17 04:00N 44°42' W 063°36'0 0.0 100 / 81005.4 10.110.5
2017-Nov-17 03:00N 44°42' W 063°36'0 0.0 110 / 111007.5 9.710.0
2017-Nov-17 01:00N 44°42' W 063°36'0 0.0 110 / 121010.2 10.110.3
2017-Nov-17 00:00N 44°42' W 063°36'0 0.0 130 / 181011.3 10.010.2
2017-Nov-16 23:00N 44°42' W 063°36'0 0.0 100 / 81012.3 8.9 9.1
2017-Nov-16 22:00N 44°42' W 063°36'0 0.0 110 / 81014.2 8.6 8.7
2017-Nov-16 21:00N 44°42' W 063°36'0 0.0 120 / 101015.2 8.3 8.4
2017-Nov-16 19:00N 44°42' W 063°36'0 0.0 130 / 121017.2 7.7 7.4
2017-Nov-16 17:00N 44°42' W 063°36'0 0.0 110 / 101018.1 7.8 5.9
2017-Nov-16 16:00N 44°42' W 063°36'0 0.0 120 / 141019.2 8.0 5.9
2017-Nov-16 15:00N 44°42' W 063°36'0 0.0 110 / 61020.3 7.6 7.5
2017-Nov-16 14:00N 44°42' W 063°36'0 0.0 110 / 21021.1 5.7 5.7
2017-Nov-16 13:00N 44°42' W 063°36'0 0.0 100 / 21021.8 3.1 3.0
2017-Nov-16 10:00N 44°42' W 063°36'0 0.0 120 / 61022.4 1.1 0.9
2017-Nov-16 09:00N 44°42' W 063°36'0 0.0 120 / 11022.9 0.9 0.7
2017-Nov-16 08:00N 44°42' W 063°36'0 0.0 100 / 21022.8 0.9 0.6
2017-Nov-16 05:00N 44°42' W 063°36'0 0.0 080 / 51023.1 1.1 0.9
2017-Nov-16 03:00N 44°42' W 063°36'0 0.0 350 / 41024.4 1.4 1.1
2017-Nov-15 23:00N 44°42' W 063°36'0 0.0 360 / 71023.8 4.0 0.1
2017-Nov-15 21:00N 44°42' W 063°36'0 0.0 350 / 51023.0 5.7-0.7
2017-Nov-15 18:00N 44°42' W 063°36'0 0.0 350 / 71023.1 6.4-0.5
2017-Nov-15 17:00N 44°42' W 063°36'0 0.0 360 / 71023.5 6.0-0.4
2017-Nov-15 15:00N 44°42' W 063°36'0 0.0 340 / 101024.3 4.5 1.6
2017-Nov-15 13:00N 44°42' W 063°36'0 0.0 350 / 71024.4 3.0 1.2
2017-Nov-15 12:00N 44°42' W 063°36'0 0.0 350 / 91024.2 2.6 1.6
2017-Nov-15 11:00N 44°42' W 063°36'0 0.0 350 / 71023.9 2.4 1.7
2017-Nov-15 10:00N 44°42' W 063°36'0 0.0 350 / 61023.6 2.3 0.9
2017-Nov-15 08:00N 44°42' W 063°36'0 0.0 360 / 61023.1 2.3-0.5
2017-Nov-15 05:00N 44°42' W 063°36'0 0.0 340 / 101022.9 2.7-0.6
2017-Nov-15 03:00N 44°42' W 063°36'0 0.0 350 / 111022.9 2.6-1.3
2017-Nov-15 01:00N 44°42' W 063°36'0 0.0 350 / 111022.8 2.8-1.7
2017-Nov-15 00:00N 44°42' W 063°36'0 0.0 360 / 111022.4 3.1-2.2
2017-Nov-14 23:00N 44°42' W 063°36'0 0.0 350 / 131022.0 3.3-1.5
2017-Nov-14 22:00N 44°42' W 063°36'0 0.0 350 / 141021.9 3.4-1.5
2017-Nov-14 20:00N 44°42' W 063°36'0 0.0 360 / 111021.2 3.8-1.3
2017-Nov-14 17:00N 44°42' W 063°36'0 0.0 360 / 101021.3 4.1 3.8
2017-Nov-14 16:00N 44°42' W 063°36'0 0.0 360 / 111021.6 3.7 3.6
2017-Nov-14 15:00N 44°42' W 063°36'0 0.0 350 / 111022.3 2.6 2.6
2017-Nov-14 14:00N 44°42' W 063°36'0 0.0 350 / 111022.2 1.6 1.7
2017-Nov-14 09:00N 44°42' W 063°36'0 0.0 350 / 61022.8 1.1 1.3
2017-Nov-14 07:00N 44°42' W 063°36'0 0.0 050 / 21023.6 1.5 1.7
2017-Nov-14 06:00N 44°42' W 063°36'0 0.0 070 / 31023.5 1.3 1.6
2017-Nov-14 04:00N 44°42' W 063°36'0 0.0 050 / 31025.7 3.2 3.1
2017-Nov-14 03:00N 44°42' W 063°36'0 0.0 080 / 31026.5 3.9-1.4
2017-Nov-14 00:00N 44°42' W 063°36'0 0.0 080 / 41027.5 4.7-1.2
2017-Nov-13 22:00N 44°42' W 063°36'0 0.0 090 / 41028.3 5.1-1.0
2017-Nov-13 21:00N 44°42' W 063°36'0 0.0 120 / 21028.6 5.4-0.2
2017-Nov-13 20:00N 44°42' W 063°36'0 0.0 130 / 31028.7 6.2-1.4
2017-Nov-13 18:00N 44°42' W 063°36'18 9.0 120 / 41029.5 5.8-2.7
2017-Nov-13 16:00N 44°36' W 063°12'1312.8 080 / 61031.1 5.4-0.8
2017-Nov-13 15:00N 44°36' W 062°54'3210.7 050 / 61031.8 5.2-2.4
2017-Nov-13 12:00N 44°48' W 062°12'2211.0 340 / 41032.4 3.4-3.1
2017-Nov-13 10:00N 44°54' W 061°42'1312.8 310 / 101031.9 2.9-4.6
2017-Nov-13 09:00N 44°54' W 061°24'1717.5 310 / 81032.1 2.9-3.5
2017-Nov-13 08:00N 45°06' W 061°06'2814.0 320 / 81031.8 2.7-4.2
2017-Nov-13 06:00N 45°18' W 060°30'1010.3 040 / 11032.1 3.4-4.3
2017-Nov-13 05:00N 45°24' W 060°18'3913.1 320 / 61032.3 3.1-4.5
2017-Nov-13 02:00N 45°54' W 059°42'1312.7 290 / 91032.4 2.3-3.2
2017-Nov-13 01:00N 46°06' W 059°36'2512.7 260 / 121032.3 2.4-2.7
2017-Nov-12 23:00N 46°30' W 059°48'1312.7 250 / 61031.6 2.6-3.6
2017-Nov-12 22:00N 46°42' W 059°54'1514.5 250 / 91031.3 2.6-3.0
2017-Nov-12 21:00N 46°54' W 060°06'1514.5 240 / 141030.9 2.7-1.0
2017-Nov-12 20:00N 47°06' W 060°18'1312.7 270 / 161030.5 3.1-1.8
2017-Nov-12 19:00N 47°18' W 060°24'2914.5 260 / 121030.4 2.5-4.0
2017-Nov-12 17:00N 47°42' W 060°48'1717.0 270 / 101030.4 1.5-4.9
2017-Nov-12 16:00N 47°54' W 061°06'2412.1 270 / 131030.5 0.9-6.5
2017-Nov-12 14:00N 48°12' W 061°30'1010.0 280 / 131030.9 0.9-7.3
2017-Nov-12 13:00N 48°18' W 061°42'1010.0 300 / 131030.6 0.8-8.7
2017-Nov-12 12:00N 48°24' W 061°54'1010.0 300 / 141029.9 0.5-8.5
2017-Nov-12 11:00N 48°30' W 062°06'8 8.0 300 / 181029.4 -0.0-7.2
2017-Nov-12 10:00N 48°30' W 062°18'30 9.9 300 / 191028.7 -0.4-7.6
2017-Nov-12 07:00N 48°48' W 062°54'13 6.6 290 / 231027.2 0.2-7.3
2017-Nov-12 05:00N 48°54' W 063°12'8 7.9 290 / 271025.6 -0.1-7.2
2017-Nov-12 04:00N 48°54' W 063°24'7 7.2 290 / 291024.9 0.2-7.3
2017-Nov-12 03:00N 49°00' W 063°30'26 8.8 290 / 281024.1 -0.4-7.8
2017-Nov-12 00:00N 49°12' W 064°06'7 7.2 290 / 311022.7 -0.6-8.4
2017-Nov-11 23:00N 49°18' W 064°12'8 7.8 290 / 391021.9 -1.1-9.2
2017-Nov-11 22:00N 49°18' W 064°24'24 8.1 290 / 431021.2 -1.8-10.2
2017-Nov-11 19:00N 49°24' W 065°00'2311.7 290 / 391017.9 -1.8-12.5
2017-Nov-11 17:00N 49°24' W 065°36'5213.1 280 / 401018.6 -2.5-14.3
2017-Nov-11 13:00N 49°12' W 066°54'3015.0 280 / 321018.1 -3.2-11.4
2017-Nov-11 11:00N 49°00' W 067°36'   280 / 271016.8 -3.1-10.6
Track history (hours):
 
Tides and Currents Weather Stations Pressure Air Temp Water Temp Dewpoint Dewpoint Depression Visibility Wind Speed Wind Dir Waves Ship Positions

Oceanographic research ship Hudson (Canada)

Detailed information on ship capabilities available from University of Delaware's Ocean Information Center.

Last reported at 2017-Nov-21 11:00 UTC. Time now 2017-Nov-21 15:31 UTC.
Position N 44°42' W 063°36'.

Length 85.03 m; beam 15.2 m; draft 6.28 m.

Type: Ship. MMSI: 316024000.

Wind from 280 at 11 knots

Barometer 1017.9 mb
Air temperature -4.0 ° C
Dewpoint -5.8 ° C

Date/timePositionNaut miles runAvg speedWind from/ knotsBaromVisibWave heightAir tempDewpointWater temp
2017-Nov-21 11:00N 44°42' W 063°36'0 0.0 280 / 111017.9 -4.0-5.8
2017-Nov-21 10:00N 44°42' W 063°36'0 0.0 260 / 131016.7 -4.1-5.5
2017-Nov-21 08:00N 44°42' W 063°36'0 0.0 250 / 151014.6 -3.9-4.5
2017-Nov-21 06:00N 44°42' W 063°36'0 0.0 260 / 131011.8 -3.0-5.5
2017-Nov-21 04:00N 44°42' W 063°36'0 0.0 280 / 151009.8 -1.8-2.6
2017-Nov-21 02:00N 44°42' W 063°36'0 0.0 290 / 141007.9 -0.8-0.8
2017-Nov-21 00:00N 44°42' W 063°36'0 0.0 250 / 111005.8 0.5-4.1
2017-Nov-20 22:00N 44°42' W 063°36'0 0.0 250 / 101005.0 1.0-4.4
2017-Nov-20 21:00N 44°42' W 063°36'0 0.0 260 / 111004.1 1.4-4.1
2017-Nov-20 19:00N 44°42' W 063°36'0 0.0 290 / 201002.2 2.5-2.3
2017-Nov-20 18:00N 44°42' W 063°36'0 0.0 260 / 141001.5 2.8-3.6
2017-Nov-20 17:00N 44°42' W 063°36'0 0.0 260 / 141001.0 2.7-2.9
2017-Nov-20 16:00N 44°42' W 063°36'0 0.0 260 / 151001.0 2.9-2.2
2017-Nov-20 15:00N 44°42' W 063°36'0 0.0 270 / 131001.2 3.1-1.9
2017-Nov-20 14:00N 44°42' W 063°36'0 0.0 270 / 131001.4 2.7 0.5
2017-Nov-20 13:00N 44°42' W 063°36'0 0.0 250 / 121001.7 2.1 0.3
2017-Nov-20 12:00N 44°42' W 063°36'0 0.0 240 / 181000.8 2.1 1.2
2017-Nov-20 09:00N 44°42' W 063°36'0 0.0 250 / 11998.0 3.5 3.3
2017-Nov-20 08:00N 44°42' W 063°36'0 0.0 250 / 14997.3 3.5 3.5
2017-Nov-20 05:00N 44°42' W 063°36'0 0.0 250 / 20992.5 8.2 8.1
2017-Nov-20 04:00N 44°42' W 063°36'0 0.0 220 / 15991.1 9.6 9.8
2017-Nov-20 02:00N 44°42' W 063°36'0 0.0 200 / 16989.2 11.812.1
2017-Nov-19 22:00N 44°42' W 063°36'0 0.0 150 / 15989.9 15.215.7
2017-Nov-19 21:00N 44°42' W 063°36'0 0.0 160 / 18991.8 15.315.8
2017-Nov-19 19:00N 44°42' W 063°36'0 0.0 150 / 14993.6 15.215.6
2017-Nov-19 17:00N 44°42' W 063°36'0 0.0 150 / 13996.7 14.414.8
2017-Nov-19 15:00N 44°42' W 063°36'0 0.0 140 / 12999.5 12.112.5
2017-Nov-19 14:00N 44°42' W 063°36'0 0.0 130 / 131000.8 11.311.7
2017-Nov-19 13:00N 44°42' W 063°36'0 0.0 130 / 101002.3 10.210.6
2017-Nov-19 12:00N 44°42' W 063°36'0 0.0 130 / 151003.3 9.7 9.9
2017-Nov-19 10:00N 44°42' W 063°36'0 0.0 130 / 111004.8 8.6 8.7
2017-Nov-19 09:00N 44°42' W 063°36'0 0.0 120 / 31006.5 6.3 6.4
2017-Nov-19 08:00N 44°42' W 063°36'0 0.0 110 / 11007.5 5.2 5.2
2017-Nov-19 05:00N 44°42' W 063°36'0 0.0 150 / 11009.4 2.9 2.8
2017-Nov-19 04:00N 44°42' W 063°36'0 0.0 180 / 41009.6 2.4 2.3
2017-Nov-19 03:00N 44°42' W 063°36'0 0.0 190 / 41009.2 1.9 1.7
2017-Nov-19 02:00N 44°42' W 063°36'0 0.0 200 / 21009.9 1.6 1.4
2017-Nov-19 00:00N 44°42' W 063°36'0 0.0 270 / 41010.1 1.6 1.4
2017-Nov-18 22:00N 44°42' W 063°36'0 0.0 310 / 91009.5 2.0 1.7
2017-Nov-18 21:00N 44°42' W 063°36'0 0.0 310 / 131009.2 2.3 2.0
2017-Nov-18 19:00N 44°42' W 063°36'0 0.0 290 / 111007.9 3.4 1.5
2017-Nov-18 17:00N 44°42' W 063°36'0 0.0 310 / 141007.6 2.2 2.0
2017-Nov-18 16:00N 44°42' W 063°36'0 0.0 310 / 141007.4 1.3 1.2
2017-Nov-18 13:00N 44°42' W 063°36'0 0.0 290 / 161007.0 0.4 0.3
2017-Nov-18 11:00N 44°42' W 063°36'0 0.0 290 / 171005.3 1.1 1.0
2017-Nov-18 10:00N 44°42' W 063°36'0 0.0 300 / 201004.2 1.1 1.0
2017-Nov-18 08:00N 44°42' W 063°36'0 0.0 290 / 161002.8 1.4 1.3
2017-Nov-18 06:00N 44°42' W 063°36'0 0.0 290 / 161002.0 1.7 1.6
2017-Nov-18 04:00N 44°42' W 063°36'0 0.0 290 / 171001.0 2.4 2.3
2017-Nov-18 02:00N 44°42' W 063°36'0 0.0 290 / 171000.1 3.3 3.2
2017-Nov-17 22:00N 44°42' W 063°36'0 0.0 250 / 16997.0 4.3 4.4
2017-Nov-17 21:00N 44°42' W 063°36'0 0.0 260 / 13995.9 5.3 5.4
2017-Nov-17 20:00N 44°42' W 063°36'0 0.0 260 / 13994.8 5.8 5.8
2017-Nov-17 18:00N 44°42' W 063°36'0 0.0 250 / 16993.2 6.5 6.4
2017-Nov-17 17:00N 44°42' W 063°36'0 0.0 240 / 24993.0 6.1 6.2
2017-Nov-17 16:00N 44°42' W 063°36'0 0.0 240 / 23993.4 6.9 6.9
2017-Nov-17 12:00N 44°42' W 063°36'0 0.0 220 / 15995.2 6.9 7.0
2017-Nov-17 10:00N 44°42' W 063°36'0 0.0 190 / 6994.1 9.5 9.7
2017-Nov-17 09:00N 44°42' W 063°36'0 0.0 190 / 10995.1 10.110.3
2017-Nov-17 08:00N 44°42' W 063°36'0 0.0 110 / 6995.9 11.612.1
2017-Nov-17 07:00N 44°42' W 063°36'0 0.0 210 / 6998.3 10.611.1
2017-Nov-17 06:00N 44°42' W 063°36'0 0.0 260 / 51000.5 9.610.0
2017-Nov-17 05:00N 44°42' W 063°36'0 0.0 100 / 111002.5 10.110.5
2017-Nov-17 04:00N 44°42' W 063°36'0 0.0 100 / 81005.4 10.110.5
2017-Nov-17 03:00N 44°42' W 063°36'0 0.0 110 / 111007.5 9.710.0
2017-Nov-17 01:00N 44°42' W 063°36'0 0.0 110 / 121010.2 10.110.3
2017-Nov-17 00:00N 44°42' W 063°36'0 0.0 130 / 181011.3 10.010.2
2017-Nov-16 23:00N 44°42' W 063°36'0 0.0 100 / 81012.3 8.9 9.1
2017-Nov-16 22:00N 44°42' W 063°36'0 0.0 110 / 81014.2 8.6 8.7
2017-Nov-16 21:00N 44°42' W 063°36'0 0.0 120 / 101015.2 8.3 8.4
2017-Nov-16 19:00N 44°42' W 063°36'0 0.0 130 / 121017.2 7.7 7.4
2017-Nov-16 17:00N 44°42' W 063°36'0 0.0 110 / 101018.1 7.8 5.9
2017-Nov-16 16:00N 44°42' W 063°36'0 0.0 120 / 141019.2 8.0 5.9
2017-Nov-16 15:00N 44°42' W 063°36'0 0.0 110 / 61020.3 7.6 7.5
2017-Nov-16 14:00N 44°42' W 063°36'0 0.0 110 / 21021.1 5.7 5.7
2017-Nov-16 13:00N 44°42' W 063°36'0 0.0 100 / 21021.8 3.1 3.0
2017-Nov-16 10:00N 44°42' W 063°36'0 0.0 120 / 61022.4 1.1 0.9
2017-Nov-16 09:00N 44°42' W 063°36'0 0.0 120 / 11022.9 0.9 0.7
2017-Nov-16 08:00N 44°42' W 063°36'0 0.0 100 / 21022.8 0.9 0.6
2017-Nov-16 05:00N 44°42' W 063°36'0 0.0 080 / 51023.1 1.1 0.9
2017-Nov-16 03:00N 44°42' W 063°36'0 0.0 350 / 41024.4 1.4 1.1
2017-Nov-15 23:00N 44°42' W 063°36'0 0.0 360 / 71023.8 4.0 0.1
2017-Nov-15 21:00N 44°42' W 063°36'0 0.0 350 / 51023.0 5.7-0.7
2017-Nov-15 18:00N 44°42' W 063°36'0 0.0 350 / 71023.1 6.4-0.5
2017-Nov-15 17:00N 44°42' W 063°36'0 0.0 360 / 71023.5 6.0-0.4
2017-Nov-15 15:00N 44°42' W 063°36'0 0.0 340 / 101024.3 4.5 1.6
2017-Nov-15 13:00N 44°42' W 063°36'0 0.0 350 / 71024.4 3.0 1.2
2017-Nov-15 12:00N 44°42' W 063°36'0 0.0 350 / 91024.2 2.6 1.6
2017-Nov-15 11:00N 44°42' W 063°36'0 0.0 350 / 71023.9 2.4 1.7
2017-Nov-15 10:00N 44°42' W 063°36'0 0.0 350 / 61023.6 2.3 0.9
2017-Nov-15 08:00N 44°42' W 063°36'0 0.0 360 / 61023.1 2.3-0.5
2017-Nov-15 05:00N 44°42' W 063°36'0 0.0 340 / 101022.9 2.7-0.6
2017-Nov-15 03:00N 44°42' W 063°36'0 0.0 350 / 111022.9 2.6-1.3
2017-Nov-15 01:00N 44°42' W 063°36'0 0.0 350 / 111022.8 2.8-1.7
2017-Nov-15 00:00N 44°42' W 063°36'0 0.0 360 / 111022.4 3.1-2.2
2017-Nov-14 23:00N 44°42' W 063°36'0 0.0 350 / 131022.0 3.3-1.5
2017-Nov-14 22:00N 44°42' W 063°36'0 0.0 350 / 141021.9 3.4-1.5
2017-Nov-14 20:00N 44°42' W 063°36'0 0.0 360 / 111021.2 3.8-1.3
2017-Nov-14 17:00N 44°42' W 063°36'0 0.0 360 / 101021.3 4.1 3.8
2017-Nov-14 16:00N 44°42' W 063°36'0 0.0 360 / 111021.6 3.7 3.6
2017-Nov-14 15:00N 44°42' W 063°36'0 0.0 350 / 111022.3 2.6 2.6
2017-Nov-14 14:00N 44°42' W 063°36'0 0.0 350 / 111022.2 1.6 1.7
2017-Nov-14 09:00N 44°42' W 063°36'0 0.0 350 / 61022.8 1.1 1.3
2017-Nov-14 07:00N 44°42' W 063°36'0 0.0 050 / 21023.6 1.5 1.7
2017-Nov-14 06:00N 44°42' W 063°36'0 0.0 070 / 31023.5 1.3 1.6
2017-Nov-14 04:00N 44°42' W 063°36'0 0.0 050 / 31025.7 3.2 3.1
2017-Nov-14 03:00N 44°42' W 063°36'0 0.0 080 / 31026.5 3.9-1.4
2017-Nov-14 00:00N 44°42' W 063°36'0 0.0 080 / 41027.5 4.7-1.2
2017-Nov-13 22:00N 44°42' W 063°36'0 0.0 090 / 41028.3 5.1-1.0
2017-Nov-13 21:00N 44°42' W 063°36'0 0.0 120 / 21028.6 5.4-0.2
2017-Nov-13 20:00N 44°42' W 063°36'0 0.0 130 / 31028.7 6.2-1.4
2017-Nov-13 18:00N 44°42' W 063°36'18 9.0 120 / 41029.5 5.8-2.7
2017-Nov-13 16:00N 44°36' W 063°12'1312.8 080 / 61031.1 5.4-0.8
2017-Nov-13 15:00N 44°36' W 062°54'3210.7 050 / 61031.8 5.2-2.4
2017-Nov-13 12:00N 44°48' W 062°12'2211.0 340 / 41032.4 3.4-3.1
2017-Nov-13 10:00N 44°54' W 061°42'1312.8 310 / 101031.9 2.9-4.6
2017-Nov-13 09:00N 44°54' W 061°24'1717.5 310 / 81032.1 2.9-3.5
2017-Nov-13 08:00N 45°06' W 061°06'2814.0 320 / 81031.8 2.7-4.2
2017-Nov-13 06:00N 45°18' W 060°30'1010.3 040 / 11032.1 3.4-4.3
2017-Nov-13 05:00N 45°24' W 060°18'3913.1 320 / 61032.3 3.1-4.5
2017-Nov-13 02:00N 45°54' W 059°42'1312.7 290 / 91032.4 2.3-3.2
2017-Nov-13 01:00N 46°06' W 059°36'2512.7 260 / 121032.3 2.4-2.7
2017-Nov-12 23:00N 46°30' W 059°48'1312.7 250 / 61031.6 2.6-3.6
2017-Nov-12 22:00N 46°42' W 059°54'1514.5 250 / 91031.3 2.6-3.0
2017-Nov-12 21:00N 46°54' W 060°06'1514.5 240 / 141030.9 2.7-1.0
2017-Nov-12 20:00N 47°06' W 060°18'1312.7 270 / 161030.5 3.1-1.8
2017-Nov-12 19:00N 47°18' W 060°24'2914.5 260 / 121030.4 2.5-4.0
2017-Nov-12 17:00N 47°42' W 060°48'1717.0 270 / 101030.4 1.5-4.9
2017-Nov-12 16:00N 47°54' W 061°06'2412.1 270 / 131030.5 0.9-6.5
2017-Nov-12 14:00N 48°12' W 061°30'1010.0 280 / 131030.9 0.9-7.3
2017-Nov-12 13:00N 48°18' W 061°42'1010.0 300 / 131030.6 0.8-8.7
2017-Nov-12 12:00N 48°24' W 061°54'1010.0 300 / 141029.9 0.5-8.5
2017-Nov-12 11:00N 48°30' W 062°06'8 8.0 300 / 181029.4 -0.0-7.2
2017-Nov-12 10:00N 48°30' W 062°18'30 9.9 300 / 191028.7 -0.4-7.6
2017-Nov-12 07:00N 48°48' W 062°54'13 6.6 290 / 231027.2 0.2-7.3
2017-Nov-12 05:00N 48°54' W 063°12'8 7.9 290 / 271025.6 -0.1-7.2
2017-Nov-12 04:00N 48°54' W 063°24'7 7.2 290 / 291024.9 0.2-7.3
2017-Nov-12 03:00N 49°00' W 063°30'26 8.8 290 / 281024.1 -0.4-7.8
2017-Nov-12 00:00N 49°12' W 064°06'7 7.2 290 / 311022.7 -0.6-8.4
2017-Nov-11 23:00N 49°18' W 064°12'8 7.8 290 / 391021.9 -1.1-9.2
2017-Nov-11 22:00N 49°18' W 064°24'24 8.1 290 / 431021.2 -1.8-10.2
2017-Nov-11 19:00N 49°24' W 065°00'2311.7 290 / 391017.9 -1.8-12.5
2017-Nov-11 17:00N 49°24' W 065°36'5213.1 280 / 401018.6 -2.5-14.3
2017-Nov-11 13:00N 49°12' W 066°54'3015.0 280 / 321018.1 -3.2-11.4
2017-Nov-11 11:00N 49°00' W 067°36'   280 / 271016.8 -3.1-10.6

Dump ship's entire track history